EIKY

Kerry Airport

Killarney, Ireland
METAR EIKY 201930Z 22008KT 9999 SCT035 08/05 Q1008
Observed Flight Rules
Jan-20 @ 19:30 UTC (9 hours ago) Visual Flight Rules
Wind Visibility Clouds
220° at 8 knots 10,000+ meters
  • Scattered at 3,500' AGL
Temperatures Readings
Current 8°C / 46°F
Dewpoint 5°C / 41°F
Humidity 82%
Altimeter 29.76" Hg
Pressure 1008 hPa
Elevation 34
METAR EIKY 201930Z 22008KT 9999 SCT035 08/05 Q1008
Observed Flight Rules
Jan-20 @ 19:30 UTC
(9 hours ago)
VFR
Wind Visibility
220° at 8 knots 10,000+ meters
Clouds
  • Scattered at 3,500' AGL
Temperature Dewpoint
8°C / 46°F 5°C / 41°F
Humidity Altimeter Pressure
82% 29.76" Hg 1008 hPa